createdAt,value
2023-09-27T00:01:25.824Z,67.91
2023-09-27T00:03:52.614Z,67.96
2023-09-27T00:06:19.349Z,67.89
2023-09-27T00:08:46.227Z,68.08
2023-09-27T00:11:13.421Z,68.07
2023-09-27T00:13:40.295Z,68.00
2023-09-27T00:16:07.020Z,68.06
2023-09-27T00:18:34.475Z,68.09
2023-09-27T00:21:01.214Z,68.12
2023-09-27T00:23:28.114Z,67.94
2023-09-27T00:25:54.786Z,68.15
2023-09-27T00:28:21.544Z,68.17
2023-09-27T00:30:51.015Z,68.27
2023-09-27T00:33:17.743Z,68.16
2023-09-27T00:35:49.625Z,68.45
2023-09-27T00:38:16.306Z,68.47
2023-09-27T00:40:48.085Z,68.70
2023-09-27T00:43:31.439Z,68.71
2023-09-27T00:46:02.436Z,68.84
2023-09-27T00:48:30.944Z,68.86
2023-09-27T00:50:58.149Z,69.08
2023-09-27T00:53:30.092Z,69.29
2023-09-27T00:55:57.315Z,69.09
2023-09-27T00:58:25.440Z,69.13
2023-09-27T01:00:53.297Z,69.04
2023-09-27T01:03:20.557Z,69.06
2023-09-27T01:05:48.477Z,69.19
2023-09-27T01:08:15.166Z,69.28
2023-09-27T01:10:42.540Z,69.15
2023-09-27T01:13:10.171Z,68.96
2023-09-27T01:15:37.027Z,69.11
2023-09-27T01:18:03.972Z,69.15
2023-09-27T01:20:32.410Z,69.08
2023-09-27T01:23:03.595Z,69.25
2023-09-27T01:25:35.019Z,69.26
2023-09-27T01:28:05.005Z,69.03
2023-09-27T01:30:35.151Z,69.35
2023-09-27T01:33:12.373Z,69.48
2023-09-27T01:35:40.669Z,69.27
2023-09-27T01:38:08.987Z,69.27
2023-09-27T01:40:41.240Z,69.56
2023-09-27T01:43:08.425Z,69.66
2023-09-27T01:45:35.627Z,69.55
2023-09-27T01:48:03.281Z,69.53
2023-09-27T01:50:33.437Z,69.53
2023-09-27T01:53:01.163Z,69.68
2023-09-27T01:55:28.799Z,69.59
2023-09-27T01:57:56.599Z,69.78
2023-09-27T02:00:23.658Z,70.03
2023-09-27T02:02:51.885Z,70.19
2023-09-27T02:05:19.091Z,70.06
2023-09-27T02:07:45.952Z,70.33
2023-09-27T02:10:13.839Z,70.30
2023-09-27T02:12:40.833Z,70.37
2023-09-27T02:15:10.354Z,70.43
2023-09-27T02:17:40.611Z,70.64
2023-09-27T02:20:09.941Z,70.83
2023-09-27T02:22:37.470Z,71.11
2023-09-27T02:25:06.390Z,71.33
2023-09-27T02:27:33.632Z,71.33
2023-09-27T02:30:00.383Z,71.44
2023-09-27T02:32:27.158Z,71.25
2023-09-27T02:34:53.997Z,71.25
2023-09-27T02:37:21.718Z,71.11
2023-09-27T02:39:49.034Z,71.37
2023-09-27T02:42:15.713Z,71.26
2023-09-27T02:44:42.618Z,71.43
2023-09-27T02:47:09.546Z,71.15
2023-09-27T02:49:36.424Z,71.40
2023-09-27T02:52:03.110Z,71.48
2023-09-27T02:54:29.903Z,71.69
2023-09-27T02:56:56.755Z,71.58
2023-09-27T02:59:23.523Z,71.55
2023-09-27T03:01:50.468Z,71.64
2023-09-27T03:04:17.238Z,71.57
2023-09-27T03:06:43.862Z,71.59
2023-09-27T03:09:14.031Z,71.71
2023-09-27T03:11:43.249Z,71.68
2023-09-27T03:14:10.300Z,71.73
2023-09-27T03:16:38.539Z,71.66
2023-09-27T03:19:05.719Z,71.83
2023-09-27T03:21:32.422Z,71.80
2023-09-27T03:23:59.119Z,71.73
2023-09-27T03:26:25.858Z,71.81
2023-09-27T03:28:53.349Z,71.80
2023-09-27T03:31:21.078Z,71.54
2023-09-27T03:33:47.753Z,71.90
2023-09-27T03:36:16.062Z,72.03
2023-09-27T03:38:43.441Z,71.92
2023-09-27T03:41:11.141Z,71.89
2023-09-27T03:43:38.544Z,71.77
2023-09-27T03:46:05.529Z,71.69
2023-09-27T03:48:33.175Z,71.86
2023-09-27T03:51:00.302Z,72.02
2023-09-27T03:53:27.082Z,72.11
2023-09-27T03:55:53.779Z,72.13
2023-09-27T03:58:21.339Z,72.46
2023-09-27T04:00:48.285Z,72.77
2023-09-27T04:03:15.094Z,72.68
2023-09-27T04:05:42.052Z,72.59
2023-09-27T04:08:12.069Z,72.54
2023-09-27T04:10:38.790Z,72.71
2023-09-27T04:13:05.543Z,72.65
2023-09-27T04:15:32.424Z,72.77
2023-09-27T04:17:59.275Z,72.74
2023-09-27T04:20:26.920Z,72.80
2023-09-27T04:22:53.649Z,72.63
2023-09-27T04:25:21.052Z,72.75
2023-09-27T04:27:51.147Z,72.58
2023-09-27T04:30:23.331Z,72.59
2023-09-27T04:32:54.350Z,72.76
2023-09-27T04:35:21.988Z,72.79
2023-09-27T04:37:49.754Z,72.96
2023-09-27T04:40:16.827Z,73.15
2023-09-27T04:42:45.080Z,73.23
2023-09-27T04:45:13.993Z,73.46
2023-09-27T04:47:42.406Z,73.63
2023-09-27T04:50:19.184Z,73.66
2023-09-27T04:52:46.390Z,73.98
2023-09-27T04:55:14.297Z,74.11
2023-09-27T04:57:41.787Z,74.09
2023-09-27T05:00:15.415Z,74.09
2023-09-27T05:02:42.714Z,74.22
2023-09-27T05:05:09.902Z,74.10
2023-09-27T05:07:36.669Z,74.00
2023-09-27T05:10:04.615Z,73.97
2023-09-27T05:12:31.326Z,74.10
2023-09-27T05:14:59.563Z,74.01
2023-09-27T05:17:26.769Z,74.13
2023-09-27T05:19:54.629Z,74.06
2023-09-27T05:22:21.625Z,74.11
2023-09-27T05:24:48.614Z,74.11
2023-09-27T05:27:46.361Z,74.15
2023-09-27T05:30:13.643Z,73.99
2023-09-27T07:33:18.943Z,66.45
2023-09-27T07:35:46.522Z,64.78
2023-09-27T07:38:13.254Z,63.51
2023-09-27T07:40:40.124Z,62.65
2023-09-27T07:43:06.996Z,62.17
2023-09-27T07:45:36.628Z,61.81
2023-09-27T07:48:04.916Z,60.81
2023-09-27T07:50:34.911Z,60.11
2023-09-27T07:53:05.254Z,59.83
2023-09-27T07:55:35.154Z,59.07
2023-09-27T07:58:02.297Z,57.93
2023-09-27T08:00:30.902Z,56.92
2023-09-27T08:03:01.896Z,56.51
2023-09-27T08:05:29.132Z,55.61
2023-09-27T08:07:56.258Z,55.02
2023-09-27T08:10:23.670Z,54.60
2023-09-27T08:12:50.571Z,53.84
2023-09-27T08:15:19.462Z,53.64
2023-09-27T08:17:47.631Z,53.69
2023-09-27T08:20:15.001Z,52.91
2023-09-27T08:22:41.939Z,52.39
2023-09-27T08:25:18.461Z,51.55
2023-09-27T08:27:45.830Z,50.88
2023-09-27T08:30:13.569Z,50.58
2023-09-27T08:32:41.134Z,49.89
2023-09-27T08:35:09.813Z,49.27
2023-09-27T08:37:36.952Z,49.00
2023-09-27T08:40:08.568Z,48.66
2023-09-27T08:42:35.558Z,48.55
2023-09-27T08:45:07.162Z,48.19
2023-09-27T08:47:34.578Z,47.35
2023-09-27T08:50:01.464Z,46.63
2023-09-27T08:52:29.310Z,45.53
2023-09-27T08:54:56.207Z,45.08
2023-09-27T08:57:30.108Z,44.80
2023-09-27T08:59:57.103Z,45.01
2023-09-27T09:02:27.965Z,44.54
2023-09-27T09:04:55.483Z,43.41
2023-09-27T09:07:22.293Z,42.89
2023-09-27T09:09:49.134Z,41.89
2023-09-27T09:12:15.716Z,41.36
2023-09-27T09:14:44.413Z,41.28
2023-09-27T09:17:20.112Z,41.13
2023-09-27T09:20:17.456Z,40.15
2023-09-27T09:22:45.722Z,39.86
2023-09-27T09:25:12.999Z,39.15
2023-09-27T09:27:41.776Z,38.68
2023-09-27T09:30:13.289Z,38.54
2023-09-27T09:32:52.974Z,38.03
2023-09-27T09:35:35.487Z,37.87
2023-09-27T09:38:04.214Z,37.34
2023-09-27T09:40:32.909Z,36.56
2023-09-27T09:43:01.091Z,36.41
2023-09-27T09:45:30.296Z,36.17
2023-09-27T09:47:57.817Z,35.47
2023-09-27T09:50:24.826Z,34.88
2023-09-27T09:52:59.225Z,35.55
2023-09-27T09:55:45.636Z,35.00
2023-09-27T09:58:49.039Z,35.09
2023-09-27T10:01:23.000Z,34.63
2023-09-27T10:03:52.818Z,34.71
2023-09-27T10:06:32.460Z,34.30
2023-09-27T10:09:15.447Z,34.16
2023-09-27T10:11:46.944Z,33.88
2023-09-27T10:14:17.190Z,34.17
2023-09-27T10:16:44.697Z,34.67
2023-09-27T10:19:11.864Z,34.41
2023-09-27T10:22:09.045Z,33.75
2023-09-27T10:24:37.339Z,33.88
2023-09-27T10:27:04.210Z,33.46
2023-09-27T10:29:30.935Z,33.52
2023-09-27T10:31:57.727Z,33.26
2023-09-27T10:34:28.788Z,32.82
2023-09-27T10:37:14.979Z,32.86
2023-09-27T10:40:22.180Z,32.96
2023-09-27T10:42:49.662Z,32.80
2023-09-27T10:45:18.420Z,32.22
2023-09-27T10:47:48.144Z,32.59
2023-09-27T10:50:15.157Z,32.49
2023-09-27T10:52:42.066Z,32.49
2023-09-27T10:55:13.225Z,32.12
2023-09-27T10:57:43.264Z,31.84
2023-09-27T11:00:14.127Z,31.73
2023-09-27T11:02:43.055Z,31.93
2023-09-27T11:05:10.477Z,31.36
2023-09-27T11:07:48.228Z,30.97
2023-09-27T11:10:29.670Z,31.07
2023-09-27T11:13:07.495Z,31.10
2023-09-27T11:15:34.473Z,30.76
2023-09-27T11:18:01.257Z,30.59
2023-09-27T11:20:28.109Z,30.42
2023-09-27T11:22:59.700Z,30.95
2023-09-27T11:25:28.521Z,30.95
2023-09-27T11:27:55.446Z,30.57
2023-09-27T11:30:31.330Z,30.63
2023-09-27T11:32:59.240Z,30.09
2023-09-27T11:35:27.342Z,29.95
2023-09-27T11:38:11.052Z,30.09
2023-09-27T11:40:39.625Z,30.51
2023-09-27T11:43:06.829Z,30.41
2023-09-27T11:46:04.404Z,29.93
2023-09-27T11:48:34.852Z,29.73
2023-09-27T11:51:02.744Z,29.49
2023-09-27T11:53:29.743Z,30.00
2023-09-27T11:55:56.836Z,29.49
2023-09-27T11:58:26.161Z,29.32
2023-09-27T12:00:53.094Z,29.82
2023-09-27T12:03:19.922Z,29.69
2023-09-27T12:05:47.468Z,29.66
2023-09-27T12:08:14.336Z,29.55
2023-09-27T12:10:41.179Z,29.33
2023-09-27T12:13:08.459Z,28.70
2023-09-27T12:15:35.130Z,28.61
2023-09-27T12:18:01.998Z,28.19
2023-09-27T12:20:40.285Z,28.50
2023-09-27T12:23:10.499Z,28.21
2023-09-27T12:25:38.081Z,28.02
2023-09-27T12:28:05.018Z,28.02
2023-09-27T12:30:31.938Z,27.82
2023-09-27T12:32:58.813Z,27.77
2023-09-27T12:35:25.790Z,27.73
2023-09-27T12:37:52.528Z,27.24
2023-09-27T12:40:19.590Z,26.96
2023-09-27T12:42:46.304Z,26.97
2023-09-27T12:45:13.094Z,26.98
2023-09-27T12:47:40.110Z,26.55
2023-09-27T12:50:08.211Z,26.90
2023-09-27T12:52:35.832Z,26.83
2023-09-27T12:55:02.781Z,27.24
2023-09-27T12:57:29.459Z,27.17
2023-09-27T12:59:57.086Z,27.54
2023-09-27T13:02:23.960Z,28.31
2023-09-27T13:04:50.630Z,28.44
2023-09-27T13:07:18.377Z,28.35
2023-09-27T13:09:45.580Z,28.72
2023-09-27T13:12:12.245Z,28.55
2023-09-27T13:14:38.939Z,27.86
2023-09-27T13:17:05.795Z,28.90
2023-09-27T13:19:32.659Z,29.80
2023-09-27T13:21:59.642Z,29.50
2023-09-27T13:24:26.472Z,28.47
2023-09-27T13:26:53.226Z,28.48
2023-09-27T13:29:19.953Z,27.64
2023-09-27T13:31:46.647Z,27.66
2023-09-27T13:34:13.909Z,27.36
2023-09-27T13:36:41.664Z,26.68
2023-09-27T13:39:15.208Z,27.04
2023-09-27T13:41:48.614Z,26.96
2023-09-27T13:44:15.601Z,27.20
2023-09-27T13:46:42.931Z,26.92
2023-09-27T13:49:10.104Z,27.08
2023-09-27T13:51:37.902Z,27.04
2023-09-27T13:54:09.296Z,27.24
2023-09-27T13:56:38.274Z,27.02
2023-09-27T13:59:05.761Z,26.97
2023-09-27T14:01:32.904Z,27.03
2023-09-27T14:04:00.251Z,26.96
2023-09-27T14:06:31.449Z,26.66
2023-09-27T14:09:01.199Z,26.80
2023-09-27T14:11:28.174Z,26.46
2023-09-27T14:13:55.035Z,26.43
2023-09-27T14:16:22.009Z,26.79
2023-09-27T14:18:48.942Z,26.62
2023-09-27T14:21:15.605Z,26.66
2023-09-27T14:23:45.888Z,26.42
2023-09-27T14:26:12.883Z,26.68
2023-09-27T14:28:40.169Z,27.16
2023-09-27T14:31:06.968Z,27.23
2023-09-27T14:33:35.058Z,27.39
2023-09-27T14:36:05.711Z,27.75
2023-09-27T14:38:35.986Z,27.44
2023-09-27T14:41:10.284Z,27.60
2023-09-27T14:43:40.383Z,27.95
2023-09-27T14:46:13.749Z,27.95
2023-09-27T14:48:41.637Z,28.04
2023-09-27T14:51:12.964Z,28.46
2023-09-27T14:53:42.128Z,28.35
2023-09-27T14:56:10.480Z,28.77
2023-09-27T14:58:37.782Z,28.90
2023-09-27T15:01:05.553Z,28.96
2023-09-27T15:03:33.808Z,28.89
2023-09-27T15:06:05.087Z,29.12
2023-09-27T15:08:32.091Z,29.26
2023-09-27T15:10:58.893Z,29.52
2023-09-27T15:13:26.502Z,29.47
2023-09-27T15:15:53.554Z,29.66
2023-09-27T15:18:21.935Z,29.98
2023-09-27T15:20:50.543Z,29.70
2023-09-27T15:23:17.225Z,30.12
2023-09-27T15:25:43.928Z,30.20
2023-09-27T15:28:10.610Z,30.21
2023-09-27T15:30:37.747Z,30.37
2023-09-27T15:33:04.722Z,31.01
2023-09-27T15:35:31.818Z,30.84
2023-09-27T15:37:59.559Z,31.07
2023-09-27T15:40:26.394Z,31.26
2023-09-27T15:42:56.707Z,31.33
2023-09-27T15:45:29.252Z,31.49
2023-09-27T15:47:56.018Z,31.73
2023-09-27T15:50:22.812Z,31.62
2023-09-27T15:52:49.588Z,31.86
2023-09-27T15:55:18.123Z,32.41
2023-09-27T15:57:45.162Z,33.11
2023-09-27T16:00:14.899Z,33.55
2023-09-27T16:02:41.579Z,34.02
2023-09-27T16:05:12.701Z,34.49
2023-09-27T16:07:40.545Z,34.67
2023-09-27T16:10:10.711Z,35.04
2023-09-27T16:12:37.983Z,35.08
2023-09-27T16:15:10.885Z,35.46
2023-09-27T16:17:40.220Z,35.64
2023-09-27T16:20:08.240Z,36.05
2023-09-27T16:22:35.158Z,36.22
2023-09-27T16:25:05.281Z,36.50
2023-09-27T16:27:32.488Z,36.71
2023-09-27T16:29:59.248Z,36.89
2023-09-27T16:32:26.577Z,37.05
2023-09-27T16:34:53.388Z,37.63
2023-09-27T16:37:20.463Z,38.10
2023-09-27T16:39:48.718Z,38.23
2023-09-27T16:42:15.387Z,38.13
2023-09-27T16:44:42.176Z,38.40
2023-09-27T16:47:09.127Z,39.07
2023-09-27T16:49:35.828Z,39.12
2023-09-27T16:52:03.871Z,39.23
2023-09-27T16:54:30.558Z,39.53
2023-09-27T16:56:58.230Z,39.99
2023-09-27T16:59:25.229Z,40.13
2023-09-27T17:01:54.941Z,39.95
2023-09-27T17:04:21.785Z,40.06
2023-09-27T17:06:51.467Z,39.89
2023-09-27T17:09:18.099Z,39.71
2023-09-27T17:11:44.744Z,39.46
2023-09-27T17:14:12.104Z,39.35
2023-09-27T17:16:38.933Z,39.21
2023-09-27T17:19:06.386Z,38.82
2023-09-27T17:21:34.625Z,38.49
2023-09-27T17:24:01.280Z,38.61
2023-09-27T17:26:29.570Z,38.46
2023-09-27T17:28:56.487Z,38.07
2023-09-27T17:31:23.335Z,38.17
2023-09-27T17:33:50.131Z,38.34
2023-09-27T17:36:17.004Z,38.89
2023-09-27T17:38:43.604Z,39.36
2023-09-27T17:41:10.695Z,39.87
2023-09-27T17:43:37.947Z,39.79
2023-09-27T17:46:27.846Z,39.46
2023-09-27T17:48:57.329Z,39.38
2023-09-27T17:51:24.462Z,39.23
2023-09-27T17:53:52.396Z,39.19
2023-09-27T17:56:21.758Z,38.98
2023-09-27T17:58:48.826Z,38.81
2023-09-27T18:01:15.601Z,39.00
2023-09-27T18:03:42.723Z,38.78
2023-09-27T18:06:14.273Z,38.74
2023-09-27T18:08:41.428Z,38.52
2023-09-27T18:11:12.127Z,38.45
2023-09-27T18:13:40.119Z,38.41
2023-09-27T18:16:18.193Z,38.55
2023-09-27T18:18:46.136Z,38.82
2023-09-27T18:21:22.874Z,38.73
2023-09-27T18:23:52.946Z,39.00
2023-09-27T18:26:20.052Z,39.32
2023-09-27T18:28:51.916Z,39.34
2023-09-27T18:31:21.670Z,39.46
2023-09-27T18:33:48.436Z,39.39
2023-09-27T18:36:15.145Z,39.64
2023-09-27T18:38:46.770Z,40.06
2023-09-27T18:41:13.624Z,40.54
2023-09-27T18:43:40.266Z,40.88
2023-09-27T18:46:07.148Z,41.61
2023-09-27T18:48:34.381Z,41.99
2023-09-27T18:51:01.335Z,42.42
2023-09-27T18:53:27.971Z,42.81
2023-09-27T18:55:57.291Z,43.70
2023-09-27T18:58:25.336Z,44.67
2023-09-27T19:04:31.372Z,45.81
2023-09-27T19:06:58.289Z,46.44
2023-09-27T19:09:26.464Z,47.18
2023-09-27T19:11:54.516Z,47.58
2023-09-27T19:16:59.952Z,48.45
2023-09-27T19:19:26.651Z,48.92
2023-09-27T19:21:53.303Z,49.28
2023-09-27T19:24:20.428Z,49.76
2023-09-27T19:26:47.078Z,49.89
2023-09-27T19:29:13.784Z,50.38
2023-09-27T19:31:40.543Z,50.48
2023-09-27T19:34:07.592Z,51.03
2023-09-27T19:36:36.070Z,51.40
2023-09-27T19:39:05.817Z,51.41
2023-09-27T19:41:33.173Z,52.10
2023-09-27T19:43:59.863Z,52.31
2023-09-27T19:46:26.710Z,52.77
2023-09-27T19:48:56.401Z,52.96
2023-09-27T19:51:25.773Z,53.19
2023-09-27T19:54:01.788Z,53.50
2023-09-27T19:56:31.208Z,53.82
2023-09-27T19:59:01.427Z,54.08
2023-09-27T20:01:30.363Z,54.46
2023-09-27T20:03:57.295Z,54.87
2023-09-27T20:06:26.815Z,54.97
2023-09-27T20:08:53.425Z,55.52
2023-09-27T20:11:20.793Z,55.79
2023-09-27T20:13:48.021Z,55.91
2023-09-27T20:16:15.658Z,56.08
2023-09-27T20:18:42.374Z,56.46
2023-09-27T20:21:09.053Z,57.03
2023-09-27T20:23:35.612Z,56.92
2023-09-27T20:26:03.089Z,56.65
2023-09-27T20:28:29.785Z,57.10
2023-09-27T20:30:56.609Z,57.11
2023-09-27T20:33:23.170Z,57.29
2023-09-27T20:35:49.755Z,57.56
2023-09-27T20:38:16.466Z,57.62
2023-09-27T20:40:43.079Z,58.06
2023-09-27T20:43:09.684Z,58.05
2023-09-27T20:45:36.632Z,58.52
2023-09-27T20:48:03.424Z,58.63
2023-09-27T20:50:30.142Z,59.06
2023-09-27T20:52:57.163Z,59.27
2023-09-27T20:55:25.532Z,59.24
2023-09-27T20:57:52.411Z,59.56
2023-09-27T21:00:23.613Z,59.62
2023-09-27T21:02:50.675Z,59.75
2023-09-27T21:05:17.570Z,60.02
2023-09-27T21:07:44.294Z,59.78
2023-09-27T21:10:11.081Z,60.03
2023-09-27T21:12:37.728Z,60.39
2023-09-27T21:15:06.895Z,60.65
2023-09-27T21:17:33.765Z,60.57
2023-09-27T21:20:01.663Z,60.71
2023-09-27T21:22:28.480Z,60.90
2023-09-27T21:24:55.098Z,61.05
2023-09-27T21:27:21.694Z,61.23
2023-09-27T21:29:48.419Z,61.54
2023-09-27T21:32:15.020Z,61.50
2023-09-27T21:34:41.822Z,61.98
2023-09-27T21:37:08.798Z,62.01
2023-09-27T21:39:36.635Z,62.12
2023-09-27T21:42:03.263Z,62.13
2023-09-27T21:44:31.387Z,62.25
2023-09-27T21:46:58.016Z,62.42
2023-09-27T21:49:25.739Z,62.62
2023-09-27T21:51:52.726Z,62.61
2023-09-27T21:54:19.910Z,63.02
2023-09-27T21:56:46.638Z,63.24
2023-09-27T21:59:13.361Z,63.17
2023-09-27T22:01:40.153Z,63.36
2023-09-27T22:04:07.517Z,63.42
2023-09-27T22:06:34.219Z,63.49
2023-09-27T22:09:00.802Z,63.47
2023-09-27T22:11:27.418Z,63.60
2023-09-27T22:13:55.821Z,63.73
2023-09-27T22:16:23.017Z,63.86
2023-09-27T22:18:50.388Z,64.02
2023-09-27T22:21:28.320Z,64.09
2023-09-27T22:23:57.478Z,64.10
2023-09-27T22:26:26.242Z,64.35
2023-09-27T22:28:56.842Z,64.33
2023-09-27T22:31:32.393Z,64.34
2023-09-27T22:34:11.298Z,64.48
2023-09-27T22:36:47.861Z,64.71
2023-09-27T22:39:17.649Z,64.84
2023-09-27T22:41:46.714Z,64.74
2023-09-27T22:44:23.736Z,64.84
2023-09-27T22:46:54.676Z,64.90
2023-09-27T22:49:25.041Z,64.87
2023-09-27T22:51:52.625Z,65.15
2023-09-27T22:54:21.733Z,65.43
2023-09-27T22:56:50.760Z,65.36
2023-09-27T22:59:18.481Z,65.60
2023-09-27T23:01:47.558Z,65.77
2023-09-27T23:04:17.233Z,65.88
2023-09-27T23:07:01.274Z,65.83
2023-09-27T23:09:35.343Z,65.84
2023-09-27T23:12:18.672Z,65.98
2023-09-27T23:15:04.724Z,66.00
2023-09-27T23:17:44.539Z,65.95
2023-09-27T23:20:12.683Z,65.97
2023-09-27T23:22:58.097Z,66.08
2023-09-27T23:25:53.111Z,66.28
2023-09-27T23:28:28.608Z,66.13
2023-09-27T23:30:56.667Z,66.01
2023-09-27T23:33:23.515Z,66.18
2023-09-27T23:35:51.336Z,66.47
2023-09-27T23:38:37.602Z,66.75
2023-09-27T23:41:04.305Z,66.95
2023-09-27T23:43:41.274Z,66.91
2023-09-27T23:46:15.788Z,67.23
2023-09-27T23:48:43.412Z,67.26
2023-09-27T23:51:10.073Z,67.23
2023-09-27T23:53:37.304Z,67.31
2023-09-27T23:56:07.769Z,67.22
2023-09-27T23:58:35.556Z,67.47
